createdAt,value
2023-03-04T00:02:13.063Z,100686.47
2023-03-04T00:04:40.566Z,100688.16
2023-03-04T00:07:08.056Z,100683.72
2023-03-04T00:09:35.559Z,100687.19
2023-03-04T00:12:03.039Z,100683.63
2023-03-04T00:14:30.704Z,100683.66
2023-03-04T00:16:58.228Z,100687.09
2023-03-04T00:19:27.019Z,100685.44
2023-03-04T00:21:54.475Z,100685.41
2023-03-04T00:24:21.969Z,100677.41
2023-03-04T00:26:49.465Z,100675.66
2023-03-04T00:29:17.141Z,100679.22
2023-03-04T00:31:44.619Z,100681.81
2023-03-04T00:34:12.119Z,100678.19
2023-03-04T00:36:41.021Z,100672.09
2023-03-04T00:39:08.559Z,100678.28
2023-03-04T00:41:36.060Z,100671.28
2023-03-04T00:44:03.536Z,100678.34
2023-03-04T00:46:31.045Z,100676.53
2023-03-04T00:48:58.538Z,100672.09
2023-03-04T00:51:26.062Z,100678.19
2023-03-04T00:53:55.032Z,100671.88
2023-03-04T00:56:22.506Z,100669.28
2023-03-04T00:58:50.094Z,100675.41
2023-03-04T01:01:17.640Z,100671.88
2023-03-04T01:03:45.073Z,100657.72
2023-03-04T01:06:12.598Z,100661.19
2023-03-04T01:08:40.646Z,100662.09
2023-03-04T01:11:09.515Z,100658.59
2023-03-04T01:13:36.992Z,100664.72
2023-03-04T01:16:05.570Z,100663.88
2023-03-04T01:18:33.588Z,100659.53
2023-03-04T01:21:01.069Z,100660.34
2023-03-04T01:23:28.643Z,100655.09
2023-03-04T01:25:56.100Z,100654.16
2023-03-04T01:28:24.939Z,100643.66
2023-03-04T01:30:52.472Z,100648.03
2023-03-04T01:33:20.070Z,100641.94
2023-03-04T01:35:47.646Z,100639.28
2023-03-04T01:38:15.215Z,100648.16
2023-03-04T01:40:42.692Z,100641.03
2023-03-04T01:43:26.363Z,100640.97
2023-03-04T01:45:55.646Z,100639.22
2023-03-04T01:48:26.737Z,100636.59
2023-03-04T01:50:54.425Z,100632.25
2023-03-04T01:53:24.124Z,100640.13
2023-03-04T01:55:54.237Z,100637.50
2023-03-04T01:58:22.386Z,100635.75
2023-03-04T02:00:51.212Z,100629.53
2023-03-04T02:03:20.608Z,100630.34
2023-03-04T02:05:52.887Z,100632.97
2023-03-04T02:08:23.378Z,100631.25
2023-03-04T02:10:52.569Z,100629.63
2023-03-04T02:13:20.529Z,100629.53
2023-03-04T02:15:48.471Z,100617.44
2023-03-04T02:18:20.213Z,100624.38
2023-03-04T02:20:57.705Z,100618.97
2023-03-04T02:23:30.381Z,100620.69
2023-03-04T02:26:14.915Z,100617.06
2023-03-04T02:28:42.900Z,100609.28
2023-03-04T02:31:23.752Z,100618.94
2023-03-04T02:33:51.983Z,100612.72
2023-03-04T02:36:19.904Z,100605.72
2023-03-04T02:38:47.599Z,100605.72
2023-03-04T02:41:20.141Z,100613.56
2023-03-04T02:43:48.904Z,100605.75
2023-03-04T02:46:16.398Z,100595.94
2023-03-04T02:48:44.100Z,100605.63
2023-03-04T02:51:11.655Z,100601.38
2023-03-04T02:53:39.184Z,100601.25
2023-03-04T02:56:07.437Z,100604.72
2023-03-04T02:58:36.283Z,100596.34
2023-03-04T03:01:03.794Z,100586.47
2023-03-04T03:03:31.239Z,100600.38
2023-03-04T03:05:58.718Z,100593.34
2023-03-04T03:08:26.274Z,100594.28
2023-03-04T03:10:53.732Z,100585.06
2023-03-04T03:13:21.222Z,100585.63
2023-03-04T03:15:50.267Z,100588.81
2023-03-04T03:18:17.916Z,100585.31
2023-03-04T03:20:45.386Z,100584.34
2023-03-04T03:23:13.057Z,100585.28
2023-03-04T03:25:40.520Z,100580.84
2023-03-04T03:28:08.010Z,100576.53
2023-03-04T03:30:35.471Z,100573.75
2023-03-04T03:33:04.266Z,100567.69
2023-03-04T03:35:31.808Z,100572.03
2023-03-04T03:37:59.263Z,100570.41
2023-03-04T03:40:26.788Z,100566.03
2023-03-04T03:42:54.270Z,100577.38
2023-03-04T03:45:21.703Z,100571.19
2023-03-04T03:47:49.206Z,100570.22
2023-03-04T03:50:18.349Z,100577.28
2023-03-04T03:52:45.811Z,100573.03
2023-03-04T03:55:13.463Z,100573.81
2023-03-04T03:57:41.083Z,100574.66
2023-03-04T04:00:10.444Z,100566.66
2023-03-04T04:02:38.032Z,100565.78
2023-03-04T04:05:06.624Z,100572.75
2023-03-04T04:07:35.790Z,100563.19
2023-03-04T04:10:03.287Z,100568.38
2023-03-04T04:12:30.930Z,100566.72
2023-03-04T04:14:58.436Z,100566.69
2023-03-04T04:17:25.927Z,100565.25
2023-03-04T04:19:53.448Z,100558.97
2023-03-04T04:22:21.882Z,100557.06
2023-03-04T04:24:50.652Z,100556.25
2023-03-04T04:27:18.151Z,100558.00
2023-03-04T04:29:45.613Z,100564.09
2023-03-04T04:32:13.208Z,100562.25
2023-03-04T04:34:40.769Z,100561.44
2023-03-04T04:37:08.285Z,100568.41
2023-03-04T04:39:35.791Z,100556.06
2023-03-04T04:42:04.879Z,100563.91
2023-03-04T04:44:32.327Z,100562.31
2023-03-04T04:46:59.989Z,100571.22
2023-03-04T04:49:27.446Z,100563.25
2023-03-04T04:51:54.868Z,100564.13
2023-03-04T04:54:22.378Z,100577.50
2023-03-04T04:56:50.019Z,100568.59
2023-03-04T04:59:18.949Z,100574.13
2023-03-04T05:01:46.511Z,100568.88
2023-03-04T05:04:14.033Z,100570.75
2023-03-04T05:06:41.649Z,100575.94
2023-03-04T05:09:09.174Z,100580.16
2023-03-04T05:11:36.748Z,100576.53
2023-03-04T05:14:04.390Z,100570.53
2023-03-04T05:16:33.927Z,100576.59
2023-03-04T05:19:01.416Z,100569.50
2023-03-04T05:21:29.007Z,100567.09
2023-03-04T05:23:56.513Z,100572.16
2023-03-04T05:26:24.011Z,100558.78
2023-03-04T05:28:51.497Z,100562.38
2023-03-04T05:31:19.083Z,100558.00
2023-03-04T05:33:48.020Z,100564.13
2023-03-04T05:36:17.507Z,100564.19
2023-03-04T05:38:45.181Z,100563.56
2023-03-04T05:41:12.667Z,100559.00
2023-03-04T05:43:42.738Z,100566.03
2023-03-04T05:46:14.306Z,100559.78
2023-03-04T05:48:41.912Z,100566.66
2023-03-04T05:51:10.774Z,100559.69
2023-03-04T05:53:39.261Z,100555.28
2023-03-04T05:56:11.195Z,100560.53
2023-03-04T05:58:39.024Z,100571.13
2023-03-04T06:01:07.375Z,100567.69
2023-03-04T06:03:35.434Z,100568.50
2023-03-04T06:06:06.340Z,100568.41
2023-03-04T06:08:35.135Z,100572.72
2023-03-04T06:11:02.767Z,100573.72
2023-03-04T06:13:30.231Z,100583.78
2023-03-04T06:15:59.152Z,100579.97
2023-03-04T06:18:28.149Z,100579.97
2023-03-04T06:20:57.445Z,100587.91
2023-03-04T06:23:24.892Z,100595.88
2023-03-04T06:25:55.170Z,100592.25
2023-03-04T06:28:23.265Z,100597.53
2023-03-04T06:30:53.162Z,100593.00
2023-03-04T06:33:20.892Z,100597.78
2023-03-04T06:35:48.580Z,100598.47
2023-03-04T06:38:16.301Z,100596.78
2023-03-04T06:40:44.421Z,100597.59
2023-03-04T06:43:13.289Z,100587.78
2023-03-04T06:45:40.790Z,100594.88
2023-03-04T06:48:08.222Z,100602.84
2023-03-04T06:50:36.029Z,100600.13
2023-03-04T06:53:03.521Z,100611.38
2023-03-04T06:55:30.954Z,100605.44
2023-03-04T06:57:58.437Z,100608.75
2023-03-04T07:00:27.365Z,100605.22
2023-03-04T07:02:55.304Z,100606.94
2023-03-04T07:05:22.825Z,100609.53
2023-03-04T07:07:50.521Z,100605.22
2023-03-04T07:10:18.391Z,100619.25
2023-03-04T07:12:45.958Z,100613.16
2023-03-04T07:15:13.525Z,100605.94
2023-03-04T07:17:42.365Z,100612.19
2023-03-04T07:20:11.072Z,100607.84
2023-03-04T07:22:38.827Z,100613.09
2023-03-04T07:25:07.086Z,100614.75
2023-03-04T07:27:34.768Z,100621.22
2023-03-04T07:30:03.361Z,100622.03
2023-03-04T07:32:30.955Z,100619.28
2023-03-04T07:35:00.031Z,100623.19
2023-03-04T07:37:27.507Z,100624.66
2023-03-04T07:39:54.953Z,100634.41
2023-03-04T07:42:24.781Z,100626.59
2023-03-04T07:44:55.057Z,100626.56
2023-03-04T07:47:22.775Z,100625.34
2023-03-04T07:49:50.233Z,100625.19
2023-03-04T07:52:19.000Z,100633.97
2023-03-04T07:54:46.539Z,100635.16
2023-03-04T07:57:14.013Z,100630.94
2023-03-04T07:59:41.453Z,100628.75
2023-03-04T08:02:09.779Z,100623.78
2023-03-04T08:04:37.363Z,100621.94
2023-03-04T08:07:04.812Z,100628.66
2023-03-04T08:09:33.637Z,100627.81
2023-03-04T08:12:01.134Z,100626.63
2023-03-04T08:14:28.675Z,100628.28
2023-03-04T08:16:56.208Z,100622.84
2023-03-04T08:19:25.893Z,100624.59
2023-03-04T08:21:53.606Z,100626.22
2023-03-04T08:24:21.026Z,100632.28
2023-03-04T08:26:51.144Z,100626.41
2023-03-04T08:29:21.316Z,100628.44
2023-03-04T08:31:49.508Z,100628.06
2023-03-04T08:34:18.061Z,100622.75
2023-03-04T08:36:45.782Z,100621.94
2023-03-04T08:39:15.352Z,100618.13
2023-03-04T08:41:43.151Z,100621.25
2023-03-04T08:44:12.739Z,100618.50
2023-03-04T08:46:41.744Z,100628.19
2023-03-04T08:49:09.832Z,100619.09
2023-03-04T08:51:37.350Z,100629.56
2023-03-04T08:54:05.055Z,100627.78
2023-03-04T08:56:32.682Z,100620.66
2023-03-04T08:59:00.303Z,100622.91
2023-03-04T09:01:29.153Z,100625.34
2023-03-04T09:03:56.693Z,100622.41
2023-03-04T09:06:24.248Z,100627.00
2023-03-04T09:08:51.744Z,100629.94
2023-03-04T09:11:19.393Z,100623.06
2023-03-04T09:13:47.014Z,100626.22
2023-03-04T09:16:15.988Z,100624.72
2023-03-04T09:18:45.049Z,100623.78
2023-03-04T09:21:12.889Z,100619.47
2023-03-04T09:23:40.689Z,100619.41
2023-03-04T09:26:16.910Z,100619.25
2023-03-04T09:28:44.453Z,100619.28
2023-03-04T09:31:13.546Z,100631.03
2023-03-04T09:33:43.018Z,100617.66
2023-03-04T09:36:13.738Z,100629.63
2023-03-04T09:38:42.286Z,100623.59
2023-03-04T09:41:11.819Z,100628.69
2023-03-04T09:43:40.825Z,100629.34
2023-03-04T09:46:13.654Z,100627.50
2023-03-04T09:48:46.082Z,100627.00
2023-03-04T09:51:22.375Z,100620.25
2023-03-04T09:54:00.128Z,100626.19
2023-03-04T09:56:29.273Z,100620.69
2023-03-04T09:59:08.111Z,100624.09
2023-03-04T10:01:40.782Z,100618.75
2023-03-04T10:04:14.922Z,100623.78
2023-03-04T10:06:46.848Z,100620.41
2023-03-04T10:09:18.079Z,100619.56
2023-03-04T10:11:47.770Z,100618.56
2023-03-04T10:14:40.890Z,100617.94
2023-03-04T10:17:15.019Z,100616.19
2023-03-04T10:19:55.715Z,100613.53
2023-03-04T10:22:32.783Z,100614.81
2023-03-04T10:25:08.572Z,100619.69
2023-03-04T10:27:36.264Z,100616.38
2023-03-04T10:30:04.186Z,100608.31
2023-03-04T10:32:31.788Z,100607.75
2023-03-04T10:34:59.326Z,100611.19
2023-03-04T10:37:44.908Z,100608.03
2023-03-04T10:40:20.224Z,100600.66
2023-03-04T10:42:49.548Z,100612.06
2023-03-04T10:45:22.305Z,100605.94
2023-03-04T10:47:54.019Z,100603.88
2023-03-04T10:50:26.074Z,100603.53
2023-03-04T10:52:55.987Z,100600.31
2023-03-04T10:55:28.115Z,100602.34
2023-03-04T10:57:58.039Z,100596.50
2023-03-04T11:00:29.628Z,100600.84
2023-03-04T11:03:26.433Z,100594.41
2023-03-04T11:06:07.036Z,100595.13
2023-03-04T11:08:35.911Z,100592.72
2023-03-04T11:11:03.443Z,100591.44
2023-03-04T11:13:32.519Z,100588.16
2023-03-04T11:16:02.306Z,100600.47
2023-03-04T11:18:36.444Z,100588.06
2023-03-04T11:21:04.280Z,100591.44
2023-03-04T11:23:40.694Z,100593.19
2023-03-04T11:26:15.496Z,100591.13
2023-03-04T11:28:47.496Z,100574.28
2023-03-04T11:31:18.960Z,100576.09
2023-03-04T11:33:51.517Z,100573.22
2023-03-04T11:36:30.176Z,100575.56
2023-03-04T11:38:59.651Z,100572.28
2023-03-04T11:41:32.074Z,100577.19
2023-03-04T11:44:00.519Z,100565.28
2023-03-04T11:46:50.603Z,100557.16
2023-03-04T11:49:44.770Z,100562.66
2023-03-04T11:52:23.306Z,100557.31
2023-03-04T11:55:06.060Z,100550.34
2023-03-04T11:57:43.287Z,100556.31
2023-03-04T12:00:29.472Z,100537.03
2023-03-04T12:03:13.268Z,100537.03
2023-03-04T12:05:52.326Z,100537.53
2023-03-04T12:08:34.986Z,100530.16
2023-03-04T12:11:10.524Z,100525.91
2023-03-04T12:13:59.236Z,100520.28
2023-03-04T12:16:43.991Z,100513.78
2023-03-04T12:19:25.430Z,100512.16
2023-03-04T12:22:09.489Z,100511.31
2023-03-04T12:25:07.989Z,100515.66
2023-03-04T12:27:44.882Z,100511.72
2023-03-04T12:30:29.361Z,100506.53
2023-03-04T12:33:07.327Z,100512.19
2023-03-04T12:35:39.286Z,100506.09
2023-03-04T12:38:40.120Z,100503.69
2023-03-04T12:41:22.951Z,100489.34
2023-03-04T12:44:00.154Z,100493.81
2023-03-04T12:46:42.813Z,100488.97
2023-03-04T12:49:21.811Z,100486.25
2023-03-04T12:51:58.118Z,100476.25
2023-03-04T12:54:33.142Z,100476.19
2023-03-04T12:57:05.480Z,100483.81
2023-03-04T12:59:37.746Z,100470.38
2023-03-04T13:02:28.658Z,100473.59
2023-03-04T13:05:03.620Z,100474.53
2023-03-04T13:07:44.031Z,100467.50
2023-03-04T13:10:17.969Z,100469.19
2023-03-04T13:12:50.322Z,100474.13
2023-03-04T13:15:33.130Z,100476.75
2023-03-04T13:18:02.723Z,100471.44
2023-03-04T13:20:36.507Z,100481.97
2023-03-04T13:23:19.956Z,100472.28
2023-03-04T13:25:50.386Z,100464.63
2023-03-04T13:28:23.352Z,100462.59
2023-03-04T13:31:18.190Z,100457.16
2023-03-04T13:34:02.505Z,100457.38
2023-03-04T13:36:46.476Z,100446.44
2023-03-04T13:39:40.088Z,100456.47
2023-03-04T13:42:39.223Z,100446.25
2023-03-04T13:45:31.625Z,100442.16
2023-03-04T13:48:01.557Z,100445.59
2023-03-04T13:50:37.690Z,100450.91
2023-03-04T13:53:23.745Z,100442.63
2023-03-04T13:56:18.232Z,100440.16
2023-03-04T13:58:46.738Z,100425.09
2023-03-04T14:01:26.861Z,100433.84
2023-03-04T14:03:56.453Z,100433.03
2023-03-04T14:06:25.576Z,100424.13
2023-03-04T14:08:54.656Z,100420.47
2023-03-04T14:11:33.902Z,100418.63
2023-03-04T14:14:06.370Z,100421.44
2023-03-04T14:16:40.657Z,100422.06
2023-03-04T14:19:17.785Z,100414.38
2023-03-04T14:21:47.062Z,100413.53
2023-03-04T14:24:17.432Z,100416.84
2023-03-04T14:26:45.371Z,100413.53
2023-03-04T14:29:24.484Z,100411.81
2023-03-04T14:31:53.140Z,100410.34
2023-03-04T14:34:27.205Z,100408.47
2023-03-04T14:36:54.652Z,100401.75
2023-03-04T14:39:26.332Z,100401.75
2023-03-04T14:41:56.847Z,100402.63
2023-03-04T14:44:35.565Z,100396.34
2023-03-04T14:47:12.540Z,100393.78
2023-03-04T14:49:41.668Z,100397.81
2023-03-04T14:52:28.249Z,100386.19
2023-03-04T14:55:05.758Z,100384.72
2023-03-04T14:57:35.573Z,100387.19
2023-03-04T15:00:18.592Z,100379.94
2023-03-04T15:02:49.284Z,100371.16
2023-03-04T15:05:25.913Z,100376.59
2023-03-04T15:07:56.645Z,100375.75
2023-03-04T15:10:26.562Z,100368.78
2023-03-04T15:12:56.316Z,100360.81
2023-03-04T15:15:43.409Z,100362.47
2023-03-04T15:18:22.376Z,100363.53
2023-03-04T15:21:00.547Z,100358.16
2023-03-04T15:23:30.081Z,100361.38
2023-03-04T15:25:59.820Z,100367.38
2023-03-04T15:28:31.312Z,100362.16
2023-03-04T15:30:58.929Z,100358.66
2023-03-04T15:33:26.723Z,100354.97
2023-03-04T15:35:57.070Z,100362.94
2023-03-04T15:38:27.395Z,100356.06
2023-03-04T15:40:56.471Z,100354.25
2023-03-04T15:43:24.588Z,100356.25
2023-03-04T15:45:53.308Z,100361.63
2023-03-04T15:48:21.642Z,100355.66
2023-03-04T15:50:52.339Z,100361.63
2023-03-04T15:53:26.924Z,100354.91
2023-03-04T15:55:56.042Z,100357.22
2023-03-04T15:58:23.618Z,100351.63
2023-03-04T16:00:51.276Z,100355.53
2023-03-04T16:03:21.336Z,100364.16
2023-03-04T16:05:52.051Z,100364.34
2023-03-04T16:08:22.036Z,100361.47
2023-03-04T16:10:49.716Z,100363.91
2023-03-04T16:13:20.896Z,100364.38
2023-03-04T16:15:49.275Z,100366.88
2023-03-04T16:18:17.857Z,100362.81
2023-03-04T16:20:47.205Z,100355.34
2023-03-04T16:23:17.564Z,100357.06
2023-03-04T16:25:45.502Z,100350.66
2023-03-04T16:28:13.981Z,100352.84
2023-03-04T16:30:43.021Z,100354.56
2023-03-04T16:33:11.685Z,100350.94
2023-03-04T16:35:40.359Z,100347.38
2023-03-04T16:38:19.804Z,100358.16
2023-03-04T16:40:47.369Z,100352.94
2023-03-04T16:43:14.972Z,100362.53
2023-03-04T16:45:46.178Z,100359.00
2023-03-04T16:48:13.676Z,100357.13
2023-03-04T16:50:41.667Z,100348.41
2023-03-04T16:53:28.325Z,100355.78
2023-03-04T16:55:56.166Z,100359.16
2023-03-04T16:58:23.627Z,100355.59
2023-03-04T17:00:52.413Z,100360.50
2023-03-04T17:03:19.914Z,100357.59
2023-03-04T17:05:47.704Z,100352.00
2023-03-04T17:08:15.398Z,100352.94
2023-03-04T17:10:43.099Z,100352.00
2023-03-04T17:13:12.027Z,100353.13
2023-03-04T17:15:40.848Z,100356.69
2023-03-04T17:18:09.852Z,100361.63
2023-03-04T17:20:37.402Z,100358.47
2023-03-04T17:23:04.867Z,100356.97
2023-03-04T17:25:32.316Z,100370.72
2023-03-04T17:27:59.775Z,100357.22
2023-03-04T17:30:28.040Z,100360.81
2023-03-04T17:32:55.475Z,100367.06
2023-03-04T17:35:25.611Z,100372.94
2023-03-04T17:37:53.158Z,100364.88
2023-03-04T17:40:20.856Z,100370.66
2023-03-04T17:42:48.323Z,100367.69
2023-03-04T17:45:15.806Z,100369.94
2023-03-04T17:47:43.263Z,100369.47
2023-03-04T17:50:12.302Z,100368.53
2023-03-04T17:52:41.433Z,100374.06
2023-03-04T17:55:09.625Z,100368.53
2023-03-04T17:57:38.089Z,100367.56
2023-03-04T18:00:07.117Z,100368.81
2023-03-04T18:02:34.608Z,100365.88
2023-03-04T18:05:05.632Z,100362.28
2023-03-04T18:07:33.250Z,100365.63
2023-03-04T18:10:02.102Z,100364.94
2023-03-04T18:12:29.603Z,100372.56
2023-03-04T18:14:57.058Z,100376.81
2023-03-04T18:17:24.575Z,100364.84
2023-03-04T18:19:52.012Z,100360.56
2023-03-04T18:22:19.540Z,100366.00
2023-03-04T18:24:47.184Z,100371.19
2023-03-04T18:27:15.993Z,100366.00
2023-03-04T18:29:43.459Z,100367.41
2023-03-04T18:32:11.000Z,100369.16
2023-03-04T18:34:38.539Z,100364.88
2023-03-04T18:37:06.314Z,100357.78
2023-03-04T18:39:33.768Z,100361.66
2023-03-04T18:42:02.527Z,100365.56
2023-03-04T18:44:31.423Z,100361.81
2023-03-04T18:46:59.213Z,100364.53
2023-03-04T18:49:26.804Z,100355.63
2023-03-04T18:51:54.463Z,100361.53
2023-03-04T18:54:22.310Z,100366.84
2023-03-04T18:56:53.739Z,100361.53
2023-03-04T18:59:24.427Z,100371.00
2023-03-04T19:01:54.986Z,100367.44
2023-03-04T19:04:24.652Z,100370.94
2023-03-04T19:06:52.151Z,100370.94
2023-03-04T19:09:19.684Z,100365.47
2023-03-04T19:11:47.251Z,100368.84
2023-03-04T19:14:14.758Z,100368.06
2023-03-04T19:16:42.539Z,100375.09
2023-03-04T19:19:11.402Z,100375.13
2023-03-04T19:21:40.167Z,100381.31
2023-03-04T19:24:08.135Z,100372.31
2023-03-04T19:26:35.694Z,100371.94
2023-03-04T19:29:05.063Z,100385.94
2023-03-04T19:31:32.580Z,100385.78
2023-03-04T19:34:00.468Z,100392.50
2023-03-04T19:36:29.346Z,100393.50
2023-03-04T19:38:56.881Z,100385.72
2023-03-04T19:41:24.586Z,100394.53
2023-03-04T19:43:52.087Z,100386.53
2023-03-04T19:46:20.194Z,100390.53
2023-03-04T19:48:50.004Z,100387.00
2023-03-04T19:51:19.369Z,100392.50
2023-03-04T19:53:50.848Z,100393.94
2023-03-04T19:56:19.206Z,100387.75
2023-03-04T19:58:48.148Z,100378.56
2023-03-04T20:01:25.712Z,100384.31
2023-03-04T20:03:53.290Z,100381.16
2023-03-04T20:06:21.748Z,100383.13
2023-03-04T20:08:50.698Z,100379.31
2023-03-04T20:11:18.572Z,100382.53
2023-03-04T20:13:46.264Z,100384.50
2023-03-04T20:16:14.798Z,100383.53
2023-03-04T20:18:43.870Z,100383.53
2023-03-04T20:21:11.998Z,100384.00
2023-03-04T20:23:39.698Z,100385.41
2023-03-04T20:26:08.524Z,100378.34
2023-03-04T20:28:36.180Z,100380.91
2023-03-04T20:31:15.619Z,100375.53
2023-03-04T20:33:43.399Z,100374.56
2023-03-04T20:36:10.854Z,100382.72
2023-03-04T20:38:38.800Z,100394.16
2023-03-04T20:41:07.814Z,100399.38
2023-03-04T20:43:35.284Z,100388.31
2023-03-04T20:46:43.242Z,100386.16
2023-03-04T20:49:12.797Z,100386.91
2023-03-04T20:51:40.538Z,100391.72
2023-03-04T20:54:08.675Z,100389.66
2023-03-04T20:56:37.996Z,100395.22
2023-03-04T20:59:08.083Z,100396.63
2023-03-04T21:01:36.321Z,100405.72
2023-03-04T21:04:05.273Z,100395.31
2023-03-04T21:06:33.480Z,100386.81
2023-03-04T21:09:02.695Z,100392.09
2023-03-04T21:11:30.395Z,100392.91
2023-03-04T21:13:59.162Z,100388.06
2023-03-04T21:16:29.550Z,100387.78
2023-03-04T21:18:57.150Z,100386.22
2023-03-04T21:21:26.464Z,100383.50
2023-03-04T21:23:55.564Z,100388.63
2023-03-04T21:26:24.167Z,100383.50
2023-03-04T21:28:53.392Z,100385.16
2023-03-04T21:31:25.395Z,100377.91
2023-03-04T21:33:56.052Z,100375.22
2023-03-04T21:36:23.982Z,100373.22
2023-03-04T21:38:51.722Z,100380.47
2023-03-04T21:41:21.154Z,100373.09
2023-03-04T21:43:49.144Z,100371.47
2023-03-04T21:46:17.859Z,100377.91
2023-03-04T21:48:48.169Z,100374.28
2023-03-04T21:51:17.765Z,100372.50
2023-03-04T21:53:45.254Z,100368.50
2023-03-04T21:56:13.527Z,100374.00
2023-03-04T21:58:42.069Z,100374.47
2023-03-04T22:01:10.945Z,100374.56
2023-03-04T22:03:38.606Z,100373.66
2023-03-04T22:06:09.827Z,100363.97
2023-03-04T22:08:37.925Z,100354.81
2023-03-04T22:11:06.828Z,100355.72
2023-03-04T22:13:34.644Z,100354.38
2023-03-04T22:16:02.534Z,100357.69
2023-03-04T22:18:30.144Z,100356.59
2023-03-04T22:21:02.680Z,100354.03
2023-03-04T22:23:31.890Z,100348.66
2023-03-04T22:26:03.185Z,100346.75
2023-03-04T22:28:31.541Z,100343.94
2023-03-04T22:30:59.324Z,100331.50
2023-03-04T22:33:26.936Z,100337.84
2023-03-04T22:35:55.075Z,100337.84
2023-03-04T22:38:22.783Z,100350.25
2023-03-04T22:40:51.592Z,100338.69
2023-03-04T22:43:19.316Z,100339.53
2023-03-04T22:45:47.177Z,100345.00
2023-03-04T22:48:15.212Z,100337.88
2023-03-04T22:50:42.770Z,100336.13
2023-03-04T22:53:10.357Z,100342.25
2023-03-04T22:55:37.879Z,100331.66
2023-03-04T22:58:06.716Z,100331.66
2023-03-04T23:00:34.208Z,100330.94
2023-03-04T23:03:01.711Z,100327.41
2023-03-04T23:05:29.563Z,100326.44
2023-03-04T23:07:57.062Z,100327.41
2023-03-04T23:10:26.135Z,100321.22
2023-03-04T23:12:54.429Z,100327.56
2023-03-04T23:15:23.816Z,100322.16
2023-03-04T23:17:51.392Z,100326.59
2023-03-04T23:20:20.588Z,100320.47
2023-03-04T23:22:49.356Z,100321.22
2023-03-04T23:25:17.706Z,100317.66
2023-03-04T23:27:45.780Z,100314.22
2023-03-04T23:30:16.352Z,100313.22
2023-03-04T23:32:45.661Z,100314.22
2023-03-04T23:35:13.424Z,100319.50
2023-03-04T23:37:40.944Z,100322.16
2023-03-04T23:40:09.750Z,100319.50
2023-03-04T23:42:37.266Z,100315.00
2023-03-04T23:45:05.502Z,100307.16
2023-03-04T23:47:33.627Z,100308.06
2023-03-04T23:50:03.747Z,100305.38
2023-03-04T23:52:31.488Z,100301.88
2023-03-04T23:54:59.104Z,100301.88
2023-03-04T23:57:26.591Z,100301.88
2023-03-04T23:59:54.051Z,100300.19
